createdAt,value
2023-03-19T00:01:35.653Z,60.69
2023-03-19T00:04:04.815Z,60.15
2023-03-19T00:06:33.113Z,59.86
2023-03-19T00:09:04.225Z,60.23
2023-03-19T00:11:34.347Z,60.12
2023-03-19T00:14:02.599Z,60.23
2023-03-19T00:16:33.104Z,59.62
2023-03-19T00:19:02.452Z,60.29
2023-03-19T00:21:32.458Z,60.60
2023-03-19T00:24:04.082Z,60.52
2023-03-19T00:26:33.410Z,60.61
2023-03-19T00:29:01.916Z,60.85
2023-03-19T00:31:31.296Z,60.20
2023-03-19T00:34:00.009Z,60.70
2023-03-19T00:36:28.996Z,60.43
2023-03-19T00:39:01.077Z,60.80
2023-03-19T00:41:32.495Z,60.69
2023-03-19T00:44:00.919Z,60.47
2023-03-19T00:46:32.398Z,59.90
2023-03-19T00:49:00.645Z,59.64
2023-03-19T00:51:33.433Z,59.97
2023-03-19T00:54:01.845Z,59.70
2023-03-19T00:56:30.836Z,59.61
2023-03-19T00:58:59.806Z,58.79
2023-03-19T01:01:28.207Z,58.63
2023-03-19T01:03:57.031Z,58.81
2023-03-19T01:06:25.514Z,58.75
2023-03-19T01:08:55.060Z,57.85
2023-03-19T01:11:23.337Z,56.93
2023-03-19T01:13:56.416Z,56.88
2023-03-19T01:16:24.885Z,56.63
2023-03-19T01:18:53.685Z,57.53
2023-03-19T01:21:22.212Z,57.04
2023-03-19T01:23:52.159Z,56.52
2023-03-19T01:26:22.321Z,55.83
2023-03-19T01:28:54.017Z,55.32
2023-03-19T01:31:23.289Z,56.03
2023-03-19T01:33:54.963Z,55.97
2023-03-19T01:36:55.568Z,55.71
2023-03-19T01:39:34.354Z,56.77
2023-03-19T01:42:06.959Z,56.38
2023-03-19T01:44:53.971Z,55.56
2023-03-19T01:48:00.439Z,54.97
2023-03-19T01:50:43.577Z,54.47
2023-03-19T01:53:33.335Z,55.20
2023-03-19T01:56:20.307Z,54.59
2023-03-19T01:59:17.049Z,54.75
2023-03-19T02:02:13.500Z,54.24
2023-03-19T02:04:42.609Z,54.67
2023-03-19T02:07:11.401Z,54.45
2023-03-19T02:09:41.317Z,54.97
2023-03-19T02:12:11.047Z,55.44
2023-03-19T02:14:39.825Z,55.27
2023-03-19T02:17:08.705Z,55.28
2023-03-19T02:19:48.542Z,55.04
2023-03-19T02:22:22.684Z,54.78
2023-03-19T02:24:58.524Z,54.65
2023-03-19T02:27:27.027Z,54.70
2023-03-19T02:29:55.285Z,54.20
2023-03-19T02:32:24.485Z,54.44
2023-03-19T02:34:58.713Z,57.38
2023-03-19T02:37:29.631Z,58.46
2023-03-19T02:40:05.739Z,58.38
2023-03-19T02:42:34.343Z,58.47
2023-03-19T02:45:03.812Z,57.81
2023-03-19T02:47:32.205Z,56.90
2023-03-19T02:50:01.292Z,57.41
2023-03-19T02:52:29.865Z,58.34
2023-03-19T02:54:58.295Z,58.86
2023-03-19T02:57:27.375Z,59.18
2023-03-19T03:00:02.943Z,59.12
2023-03-19T03:02:32.211Z,59.24
2023-03-19T03:05:51.270Z,73.39
2023-03-19T03:08:19.584Z,62.49
2023-03-19T03:10:48.384Z,61.74
2023-03-19T03:13:17.390Z,61.41
2023-03-19T03:15:46.513Z,62.36
2023-03-19T03:18:15.406Z,62.82
2023-03-19T03:20:43.686Z,62.55
2023-03-19T03:23:12.271Z,62.54
2023-03-19T03:25:40.808Z,61.77
2023-03-19T03:28:12.469Z,62.01
2023-03-19T03:30:41.843Z,61.58
2023-03-19T03:33:10.249Z,61.60
2023-03-19T03:35:38.944Z,62.78
2023-03-19T03:38:07.908Z,62.57
2023-03-19T03:40:41.955Z,62.51
2023-03-19T03:43:11.533Z,61.72
2023-03-19T03:45:39.942Z,61.26
2023-03-19T03:48:08.636Z,61.00
2023-03-19T03:50:38.162Z,61.40
2023-03-19T03:53:10.674Z,62.47
2023-03-19T03:55:39.683Z,63.24
2023-03-19T03:58:08.144Z,63.35
2023-03-19T04:00:37.216Z,63.70
2023-03-19T04:03:05.620Z,63.39
2023-03-19T04:05:34.361Z,63.66
2023-03-19T04:08:03.758Z,63.30
2023-03-19T04:10:33.683Z,62.86
2023-03-19T04:13:02.624Z,63.38
2023-03-19T04:15:32.117Z,63.38
2023-03-19T04:18:00.508Z,63.17
2023-03-19T04:20:29.289Z,62.86
2023-03-19T04:22:58.302Z,63.67
2023-03-19T04:25:26.796Z,63.52
2023-03-19T04:27:57.648Z,63.60
2023-03-19T04:30:28.380Z,63.32
2023-03-19T04:32:57.549Z,63.64
2023-03-19T04:35:28.503Z,63.36
2023-03-19T04:37:57.070Z,62.90
2023-03-19T04:40:25.429Z,63.22
2023-03-19T04:42:55.046Z,63.16
2023-03-19T04:45:42.144Z,63.67
2023-03-19T04:48:12.968Z,63.74
2023-03-19T04:50:41.793Z,63.93
2023-03-19T04:53:10.973Z,64.13
2023-03-19T04:55:40.086Z,64.22
2023-03-19T04:58:11.898Z,64.55
2023-03-19T05:00:40.750Z,64.18
2023-03-19T05:03:09.486Z,64.36
2023-03-19T05:05:38.820Z,64.56
2023-03-19T05:08:09.565Z,64.82
2023-03-19T05:10:38.701Z,64.69
2023-03-19T05:13:07.689Z,64.16
2023-03-19T05:15:44.383Z,63.49
2023-03-19T05:18:13.180Z,63.25
2023-03-19T05:20:45.740Z,63.50
2023-03-19T05:23:23.123Z,63.80
2023-03-19T05:26:11.944Z,63.99
2023-03-19T05:29:11.188Z,63.22
2023-03-19T05:31:52.938Z,62.96
2023-03-19T05:34:21.445Z,63.15
2023-03-19T05:36:50.282Z,64.08
2023-03-19T05:39:23.074Z,64.27
2023-03-19T05:41:53.087Z,64.06
2023-03-19T05:44:25.006Z,64.24
2023-03-19T05:47:11.682Z,63.80
2023-03-19T05:49:40.940Z,62.75
2023-03-19T05:52:10.272Z,62.42
2023-03-19T05:54:39.656Z,62.77
2023-03-19T05:57:13.765Z,63.48
2023-03-19T05:59:58.938Z,64.39
2023-03-19T06:02:36.902Z,63.95
2023-03-19T06:05:35.542Z,63.57
2023-03-19T06:08:11.015Z,62.77
2023-03-19T06:11:00.342Z,62.52
2023-03-19T06:13:29.263Z,62.98
2023-03-19T06:16:00.321Z,62.25
2023-03-19T06:18:36.801Z,62.07
2023-03-19T06:21:11.237Z,60.90
2023-03-19T06:23:41.986Z,60.59
2023-03-19T06:26:17.580Z,59.39
2023-03-19T06:28:53.503Z,58.41
2023-03-19T06:31:22.722Z,57.83
2023-03-19T06:33:56.565Z,56.55
2023-03-19T06:36:28.441Z,54.68
2023-03-19T06:38:58.824Z,54.98
2023-03-19T06:41:27.748Z,54.13
2023-03-19T06:44:01.637Z,53.78
2023-03-19T06:46:30.752Z,53.29
2023-03-19T06:48:59.081Z,52.21
2023-03-19T06:51:29.127Z,53.13
2023-03-19T06:53:57.457Z,52.30
2023-03-19T06:56:26.280Z,51.46
2023-03-19T06:58:56.822Z,48.78
2023-03-19T07:01:25.363Z,47.58
2023-03-19T07:03:53.929Z,47.29
2023-03-19T07:06:24.326Z,47.19
2023-03-19T07:08:53.219Z,46.96
2023-03-19T07:11:21.731Z,47.12
2023-03-19T07:13:52.241Z,47.85
2023-03-19T07:16:20.924Z,46.50
2023-03-19T07:18:53.782Z,46.17
2023-03-19T07:21:22.578Z,46.22
2023-03-19T07:23:51.149Z,45.97
2023-03-19T07:26:21.301Z,44.86
2023-03-19T07:28:49.611Z,45.19
2023-03-19T07:31:17.946Z,44.71
2023-03-19T07:33:51.595Z,44.95
2023-03-19T07:36:21.488Z,45.07
2023-03-19T07:38:49.952Z,44.35
2023-03-19T07:41:19.838Z,44.52
2023-03-19T07:43:49.195Z,44.31
2023-03-19T07:46:18.397Z,44.44
2023-03-19T07:48:46.929Z,44.22
2023-03-19T07:51:15.869Z,44.34
2023-03-19T07:53:47.043Z,44.04
2023-03-19T07:56:15.298Z,44.15
2023-03-19T07:58:43.828Z,43.84
2023-03-19T08:01:15.791Z,43.57
2023-03-19T08:03:44.514Z,42.76
2023-03-19T08:06:12.784Z,43.04
2023-03-19T08:08:41.317Z,42.74
2023-03-19T08:11:10.187Z,42.05
2023-03-19T08:13:38.594Z,42.16
2023-03-19T08:16:13.681Z,42.21
2023-03-19T08:18:43.908Z,41.54
2023-03-19T08:21:12.534Z,41.29
2023-03-19T08:23:40.971Z,39.96
2023-03-19T08:26:09.393Z,40.55
2023-03-19T08:28:40.855Z,40.70
2023-03-19T08:31:13.432Z,41.49
2023-03-19T08:33:42.075Z,41.23
2023-03-19T08:36:12.489Z,40.91
2023-03-19T08:38:42.088Z,40.76
2023-03-19T08:41:12.934Z,40.15
2023-03-19T08:43:41.208Z,40.42
2023-03-19T08:46:09.852Z,39.82
2023-03-19T08:48:41.379Z,39.27
2023-03-19T08:51:13.130Z,39.38
2023-03-19T08:53:41.598Z,39.42
2023-03-19T08:56:09.796Z,39.71
2023-03-19T08:58:42.985Z,39.47
2023-03-19T09:01:12.976Z,40.13
2023-03-19T09:03:42.773Z,39.85
2023-03-19T09:06:12.419Z,39.98
2023-03-19T09:08:58.349Z,38.96
2023-03-19T09:11:28.192Z,39.28
2023-03-19T09:13:58.122Z,39.30
2023-03-19T09:16:26.848Z,38.57
2023-03-19T09:18:59.314Z,38.71
2023-03-19T09:21:29.140Z,38.76
2023-03-19T09:23:57.542Z,38.45
2023-03-19T09:26:26.013Z,38.37
2023-03-19T09:28:54.944Z,38.39
2023-03-19T09:31:29.925Z,37.80
2023-03-19T09:33:58.442Z,38.13
2023-03-19T09:36:26.862Z,37.20
2023-03-19T09:38:56.315Z,37.22
2023-03-19T09:41:40.254Z,36.72
2023-03-19T09:44:16.949Z,36.16
2023-03-19T09:46:47.082Z,35.71
2023-03-19T09:49:30.225Z,35.83
2023-03-19T09:52:19.957Z,35.99
2023-03-19T09:54:52.587Z,36.34
2023-03-19T09:57:22.958Z,35.90
2023-03-19T09:59:53.352Z,35.58
2023-03-19T10:02:27.670Z,35.75
2023-03-19T10:04:59.486Z,35.35
2023-03-19T10:07:33.142Z,35.78
2023-03-19T10:10:23.454Z,35.48
2023-03-19T10:13:04.889Z,34.68
2023-03-19T10:15:34.168Z,34.87
2023-03-19T10:18:13.722Z,35.30
2023-03-19T10:20:48.593Z,35.13
2023-03-19T10:23:29.422Z,34.24
2023-03-19T10:25:59.002Z,34.61
2023-03-19T10:28:29.976Z,34.43
2023-03-19T10:31:28.729Z,34.78
2023-03-19T10:34:12.514Z,34.02
2023-03-19T10:36:41.358Z,34.16
2023-03-19T10:39:09.829Z,33.77
2023-03-19T10:41:47.453Z,33.54
2023-03-19T10:44:29.379Z,33.72
2023-03-19T10:47:00.144Z,33.44
2023-03-19T10:49:28.470Z,33.35
2023-03-19T10:51:57.749Z,33.27
2023-03-19T10:54:27.239Z,32.62
2023-03-19T10:56:57.310Z,32.41
2023-03-19T10:59:31.913Z,32.67
2023-03-19T11:02:20.716Z,32.42
2023-03-19T11:04:49.922Z,32.13
2023-03-19T11:07:19.979Z,32.27
2023-03-19T11:09:50.056Z,31.91
2023-03-19T11:12:25.651Z,31.35
2023-03-19T11:14:54.977Z,31.44
2023-03-19T11:17:36.676Z,31.91
2023-03-19T11:20:22.183Z,31.86
2023-03-19T11:22:52.761Z,32.27
2023-03-19T11:25:27.248Z,32.94
2023-03-19T11:28:01.708Z,31.93
2023-03-19T11:30:39.690Z,31.99
2023-03-19T11:33:38.560Z,32.09
2023-03-19T11:36:19.369Z,31.91
2023-03-19T11:38:58.708Z,31.37
2023-03-19T11:41:33.173Z,30.74
2023-03-19T11:44:17.843Z,30.94
2023-03-19T11:47:26.185Z,30.21
2023-03-19T11:49:57.936Z,29.55
2023-03-19T11:52:41.561Z,30.02
2023-03-19T11:55:25.143Z,30.39
2023-03-19T11:58:35.742Z,30.25
2023-03-19T12:01:13.929Z,30.81
2023-03-19T12:03:51.479Z,30.93
2023-03-19T12:06:31.374Z,30.59
2023-03-19T12:09:05.821Z,30.25
2023-03-19T12:11:42.608Z,30.64
2023-03-19T12:14:22.203Z,30.32
2023-03-19T12:16:55.630Z,30.41
2023-03-19T12:19:43.251Z,30.58
2023-03-19T12:22:43.096Z,29.91
2023-03-19T12:25:32.318Z,30.16
2023-03-19T12:28:04.696Z,30.58
2023-03-19T12:30:50.522Z,30.10
2023-03-19T12:33:24.923Z,30.37
2023-03-19T12:35:56.511Z,29.80
2023-03-19T12:38:37.045Z,29.75
2023-03-19T12:41:32.772Z,29.61
2023-03-19T12:44:26.140Z,29.93
2023-03-19T12:47:06.727Z,29.18
2023-03-19T12:49:39.949Z,29.82
2023-03-19T12:52:17.652Z,29.43
2023-03-19T12:54:55.628Z,29.51
2023-03-19T12:57:44.565Z,29.29
2023-03-19T13:00:49.386Z,28.94
2023-03-19T13:03:29.199Z,29.36
2023-03-19T13:06:11.151Z,28.41
2023-03-19T13:08:56.048Z,28.46
2023-03-19T13:11:46.749Z,27.61
2023-03-19T13:14:38.824Z,28.27
2023-03-19T13:17:15.496Z,27.62
2023-03-19T13:19:51.296Z,27.86
2023-03-19T13:22:28.069Z,27.67
2023-03-19T13:24:56.994Z,27.92
2023-03-19T13:27:31.613Z,27.89
2023-03-19T13:30:09.602Z,28.02
2023-03-19T13:32:48.289Z,27.40
2023-03-19T13:35:40.792Z,27.82
2023-03-19T13:38:21.749Z,27.08
2023-03-19T13:40:52.995Z,27.29
2023-03-19T13:43:30.611Z,27.12
2023-03-19T13:46:12.420Z,26.97
2023-03-19T13:48:50.436Z,27.13
2023-03-19T13:51:27.255Z,27.33
2023-03-19T13:54:12.965Z,27.43
2023-03-19T13:57:03.609Z,27.33
2023-03-19T13:59:33.168Z,26.95
2023-03-19T14:02:02.599Z,27.58
2023-03-19T14:04:36.900Z,27.45
2023-03-19T14:07:27.937Z,27.30
2023-03-19T14:09:57.769Z,27.09
2023-03-19T14:12:37.298Z,27.29
2023-03-19T14:15:09.485Z,27.03
2023-03-19T14:17:48.389Z,27.28
2023-03-19T14:20:32.864Z,27.22
2023-03-19T14:23:09.103Z,27.06
2023-03-19T14:26:06.740Z,27.21
2023-03-19T14:28:44.926Z,26.87
2023-03-19T14:31:55.963Z,26.99
2023-03-19T14:34:39.930Z,26.92
2023-03-19T14:37:23.178Z,26.79
2023-03-19T14:40:00.752Z,26.49
2023-03-19T14:42:36.051Z,26.92
2023-03-19T14:45:14.624Z,26.57
2023-03-19T14:48:14.548Z,26.71
2023-03-19T14:51:07.979Z,26.29
2023-03-19T14:54:01.342Z,26.41
2023-03-19T14:56:34.146Z,26.49
2023-03-19T14:59:07.869Z,26.40
2023-03-19T15:01:41.314Z,26.75
2023-03-19T15:04:10.925Z,26.98
2023-03-19T15:06:53.124Z,27.33
2023-03-19T15:09:41.159Z,27.21
2023-03-19T15:12:33.955Z,27.69
2023-03-19T15:15:21.462Z,27.34
2023-03-19T15:18:04.198Z,27.48
2023-03-19T15:22:13.289Z,29.43
2023-03-19T15:24:43.333Z,28.42
2023-03-19T15:27:25.638Z,29.08
2023-03-19T15:30:02.516Z,28.93
2023-03-19T15:33:09.194Z,29.21
2023-03-19T15:35:38.013Z,29.52
2023-03-19T15:38:09.471Z,30.07
2023-03-19T15:40:37.830Z,30.18
2023-03-19T15:43:09.904Z,29.87
2023-03-19T15:45:39.255Z,29.61
2023-03-19T15:48:14.100Z,29.82
2023-03-19T15:50:44.817Z,30.20
2023-03-19T15:53:24.948Z,30.76
2023-03-19T15:55:53.431Z,30.67
2023-03-19T15:58:26.044Z,31.08
2023-03-19T16:00:54.726Z,31.03
2023-03-19T16:03:30.660Z,30.88
2023-03-19T16:06:01.858Z,31.27
2023-03-19T16:08:34.386Z,31.50
2023-03-19T16:11:26.526Z,31.49
2023-03-19T16:13:57.278Z,31.99
2023-03-19T16:16:31.583Z,32.49
2023-03-19T16:19:01.454Z,32.52
2023-03-19T16:21:40.902Z,33.09
2023-03-19T16:24:28.273Z,33.29
2023-03-19T16:26:57.125Z,33.46
2023-03-19T16:29:34.839Z,33.51
2023-03-19T16:32:24.811Z,33.41
2023-03-19T16:34:54.687Z,34.24
2023-03-19T16:37:30.485Z,35.21
2023-03-19T16:40:04.670Z,35.74
2023-03-19T16:42:40.609Z,35.66
2023-03-19T16:45:18.950Z,35.75
2023-03-19T16:47:58.047Z,36.08
2023-03-19T16:50:37.277Z,36.73
2023-03-19T16:53:23.416Z,36.25
2023-03-19T16:55:53.411Z,36.74
2023-03-19T16:58:38.188Z,36.89
2023-03-19T17:01:14.198Z,37.07
2023-03-19T17:03:44.921Z,37.82
2023-03-19T17:06:13.711Z,38.63
2023-03-19T17:08:44.434Z,38.56
2023-03-19T17:11:25.286Z,38.07
2023-03-19T17:13:56.567Z,38.77
2023-03-19T17:16:26.130Z,38.27
2023-03-19T17:18:54.635Z,38.38
2023-03-19T17:21:33.656Z,38.35
2023-03-19T17:24:16.792Z,38.18
2023-03-19T17:26:45.524Z,38.65
2023-03-19T17:29:13.848Z,38.27
2023-03-19T17:31:42.502Z,37.96
2023-03-19T17:34:17.365Z,38.45
2023-03-19T17:36:56.208Z,38.63
2023-03-19T17:39:25.305Z,38.34
2023-03-19T17:41:54.276Z,38.46
2023-03-19T17:44:22.749Z,38.38
2023-03-19T17:46:53.328Z,38.27
2023-03-19T17:49:27.812Z,38.61
2023-03-19T17:51:56.383Z,39.07
2023-03-19T17:54:27.357Z,38.71
2023-03-19T17:56:56.113Z,39.18
2023-03-19T17:59:24.464Z,39.86
2023-03-19T18:01:53.031Z,39.65
2023-03-19T18:04:22.670Z,39.79
2023-03-19T18:06:54.311Z,38.88
2023-03-19T18:09:28.642Z,38.53
2023-03-19T18:11:56.926Z,38.96
2023-03-19T18:14:25.383Z,38.98
2023-03-19T18:16:55.492Z,38.88
2023-03-19T18:19:35.405Z,39.31
2023-03-19T18:22:12.491Z,40.18
2023-03-19T18:24:41.150Z,40.05
2023-03-19T18:27:09.765Z,39.00
2023-03-19T18:29:39.749Z,39.08
2023-03-19T18:32:13.347Z,40.01
2023-03-19T18:34:41.948Z,39.11
2023-03-19T18:37:15.500Z,39.00
2023-03-19T18:39:44.645Z,39.26
2023-03-19T18:42:16.844Z,40.04
2023-03-19T18:44:46.018Z,40.51
2023-03-19T18:47:15.817Z,41.80
2023-03-19T18:49:48.748Z,41.79
2023-03-19T18:52:19.617Z,42.19
2023-03-19T18:54:48.477Z,41.94
2023-03-19T18:57:16.831Z,42.30
2023-03-19T18:59:45.738Z,42.05
2023-03-19T19:02:30.683Z,42.77
2023-03-19T19:04:59.408Z,42.79
2023-03-19T19:07:27.946Z,42.63
2023-03-19T19:09:57.599Z,43.17
2023-03-19T19:12:26.585Z,43.08
2023-03-19T19:14:55.027Z,43.23
2023-03-19T19:17:24.839Z,43.41
2023-03-19T19:19:54.561Z,43.52
2023-03-19T19:22:22.834Z,43.23
2023-03-19T19:24:51.807Z,44.01
2023-03-19T19:27:22.617Z,44.50
2023-03-19T19:29:51.409Z,44.12
2023-03-19T19:32:25.106Z,44.51
2023-03-19T19:34:53.453Z,44.97
2023-03-19T19:37:23.652Z,44.82
2023-03-19T19:39:52.307Z,44.39
2023-03-19T19:42:21.618Z,45.19
2023-03-19T19:44:55.833Z,44.86
2023-03-19T19:47:24.621Z,45.59
2023-03-19T19:49:58.583Z,45.59
2023-03-19T19:52:29.140Z,45.34
2023-03-19T19:54:58.679Z,45.07
2023-03-19T19:57:27.549Z,45.04
2023-03-19T19:59:56.508Z,45.41
2023-03-19T20:02:26.991Z,45.77
2023-03-19T20:04:57.756Z,46.27
2023-03-19T20:07:27.377Z,46.36
2023-03-19T20:09:56.265Z,46.50
2023-03-19T20:12:33.180Z,46.46
2023-03-19T20:15:01.586Z,46.83
2023-03-19T20:17:31.640Z,46.35
2023-03-19T20:19:59.861Z,46.72
2023-03-19T20:22:37.236Z,47.18
2023-03-19T20:25:07.271Z,46.81
2023-03-19T20:27:35.969Z,47.33
2023-03-19T20:30:05.688Z,47.49
2023-03-19T20:32:35.732Z,47.72
2023-03-19T20:35:20.814Z,48.03
2023-03-19T20:37:53.960Z,48.72
2023-03-19T20:40:38.430Z,48.62
2023-03-19T20:43:07.876Z,48.63
2023-03-19T20:45:37.880Z,48.71
2023-03-19T20:48:11.423Z,49.35
2023-03-19T20:50:39.890Z,49.36
2023-03-19T20:53:08.775Z,48.99
2023-03-19T20:55:38.685Z,49.21
2023-03-19T20:58:27.775Z,48.85
2023-03-19T21:00:58.077Z,49.21
2023-03-19T21:03:30.517Z,48.87
2023-03-19T21:06:02.179Z,49.72
2023-03-19T21:08:32.547Z,50.26
2023-03-19T21:11:01.379Z,49.98
2023-03-19T21:13:30.149Z,50.12
2023-03-19T21:15:59.864Z,50.42
2023-03-19T21:18:28.254Z,50.54
2023-03-19T21:20:59.948Z,50.85
2023-03-19T21:23:34.894Z,51.56
2023-03-19T21:26:18.232Z,51.89
2023-03-19T21:28:48.676Z,52.43
2023-03-19T21:31:19.229Z,51.69
2023-03-19T21:33:48.927Z,51.60
2023-03-19T21:36:17.623Z,50.97
2023-03-19T21:38:46.740Z,51.53
2023-03-19T21:41:37.424Z,52.28
2023-03-19T21:44:07.751Z,52.90
2023-03-19T21:46:36.935Z,52.49
2023-03-19T21:49:07.689Z,52.59
2023-03-19T21:51:38.099Z,53.01
2023-03-19T21:54:06.382Z,52.82
2023-03-19T21:56:40.112Z,52.61
2023-03-19T21:59:13.946Z,53.11
2023-03-19T22:01:42.550Z,53.07
2023-03-19T22:04:10.981Z,52.52
2023-03-19T22:06:40.471Z,52.67
2023-03-19T22:09:10.803Z,53.14
2023-03-19T22:11:41.862Z,52.83
2023-03-19T22:14:10.988Z,52.74
2023-03-19T22:16:41.354Z,52.45
2023-03-19T22:19:14.867Z,52.68
2023-03-19T22:21:43.185Z,52.26
2023-03-19T22:24:12.526Z,53.02
2023-03-19T22:26:43.990Z,53.42
2023-03-19T22:29:20.965Z,53.09
2023-03-19T22:31:50.158Z,52.81
2023-03-19T22:34:20.252Z,53.05
2023-03-19T22:36:50.729Z,53.66
2023-03-19T22:39:19.478Z,53.34
2023-03-19T22:41:48.105Z,53.69
2023-03-19T22:44:23.712Z,53.79
2023-03-19T22:46:52.784Z,53.50
2023-03-19T22:49:21.374Z,53.14
2023-03-19T22:51:49.737Z,53.20
2023-03-19T22:54:17.951Z,52.59
2023-03-19T22:56:46.292Z,53.08
2023-03-19T22:59:14.705Z,53.82
2023-03-19T23:01:44.433Z,54.14
2023-03-19T23:04:22.563Z,53.76
2023-03-19T23:06:52.729Z,53.44
2023-03-19T23:09:24.715Z,53.27
2023-03-19T23:11:53.825Z,54.02
2023-03-19T23:14:30.011Z,54.00
2023-03-19T23:17:02.074Z,54.77
2023-03-19T23:19:37.473Z,54.18
2023-03-19T23:22:06.637Z,53.90
2023-03-19T23:24:35.319Z,54.05
2023-03-19T23:27:04.664Z,54.80
2023-03-19T23:29:36.942Z,54.99
2023-03-19T23:32:06.093Z,55.05
2023-03-19T23:34:42.319Z,55.09
2023-03-19T23:37:11.068Z,55.17
2023-03-19T23:39:41.317Z,55.42
2023-03-19T23:42:10.150Z,55.22
2023-03-19T23:44:43.924Z,55.63
2023-03-19T23:47:19.583Z,55.32
2023-03-19T23:49:47.964Z,55.97
2023-03-19T23:52:16.245Z,55.09
2023-03-19T23:54:46.766Z,55.74
2023-03-19T23:57:17.532Z,56.26
2023-03-19T23:59:46.445Z,55.76
